Time;durP1;ratioP1;P1;durP2;ratioP2;P2;SDS_P1;SDS_P2;PMS_P1;PMS_P2;Temp;Humidity;BMP_temperature;BMP_pressure;BME280_temperature;BME280_humidity;BME280_pressure;Samples;Min_cycle;Max_cycle;Signal;HPM_P1;HPM_P2
2022/09/11 00:01:27;;;;;;;11.97;8.97;;;15.90;99.90;;;;;;5057777;28;20179;-79
2022/09/11 00:03:55;;;;;;;10.43;9.23;;;15.80;99.90;;;;;;5057420;28;20258;-79
2022/09/11 00:06:21;;;;;;;10.87;8.77;;;15.80;99.90;;;;;;5058771;28;20182;-79
2022/09/11 00:08:52;;;;;;;9.60;8.60;;;15.70;99.90;;;;;;5057460;28;20294;-79
2022/09/11 00:11:19;;;;;;;9.03;7.93;;;15.70;99.90;;;;;;5057828;28;20531;-79
2022/09/11 00:13:47;;;;;;;11.03;8.83;;;15.70;99.90;;;;;;5058704;28;20180;-79
2022/09/11 00:16:29;;;;;;;12.40;8.97;;;15.60;99.90;;;;;;5056119;28;20203;-78
2022/09/11 00:18:57;;;;;;;11.70;8.87;;;15.60;99.90;;;;;;5055044;28;20199;-78
2022/09/11 00:21:24;;;;;;;10.67;8.63;;;15.50;99.90;;;;;;5055345;28;20601;-78
2022/09/11 00:23:49;;;;;;;12.63;9.47;;;15.40;99.90;;;;;;5055433;28;20175;-78
2022/09/11 00:26:18;;;;;;;11.50;9.10;;;15.40;99.90;;;;;;5055947;28;20176;-78
2022/09/11 00:28:45;;;;;;;13.53;9.47;;;15.40;99.90;;;;;;5055452;28;20685;-79
2022/09/11 00:31:14;;;;;;;12.63;8.97;;;15.40;99.90;;;;;;5054624;28;20188;-79
2022/09/11 00:33:40;;;;;;;13.53;8.60;;;15.30;99.90;;;;;;5055822;28;20187;-79
2022/09/11 00:36:11;;;;;;;16.47;9.50;;;15.40;99.90;;;;;;5058340;28;20263;-79
2022/09/11 00:38:37;;;;;;;13.87;8.60;;;15.30;99.90;;;;;;5059010;28;20218;-78
2022/09/11 00:41:07;;;;;;;13.90;8.23;;;15.30;99.90;;;;;;5059473;28;20274;-78
2022/09/11 00:44:01;;;;;;;11.43;8.77;;;15.30;99.90;;;;;;5058312;28;20221;-78
2022/09/11 00:46:42;;;;;;;12.73;8.33;;;15.20;99.90;;;;;;5060463;28;20259;-79
2022/09/11 00:49:21;;;;;;;12.17;9.00;;;15.20;99.90;;;;;;5060716;28;20229;-79
2022/09/11 00:51:52;;;;;;;12.50;8.70;;;15.10;99.90;;;;;;5071657;28;20661;-79
2022/09/11 00:54:24;;;;;;;10.53;9.23;;;14.90;99.90;;;;;;5058966;28;20504;-79
2022/09/11 00:56:51;;;;;;;11.93;8.97;;;15.00;99.90;;;;;;5056348;28;20192;-79
2022/09/11 00:59:19;;;;;;;8.80;7.90;;;15.00;99.90;;;;;;5059338;28;20194;-79
2022/09/11 01:01:45;;;;;;;11.17;8.10;;;15.00;99.90;;;;;;5057863;28;20203;-79
2022/09/11 01:04:11;;;;;;;10.03;7.73;;;15.00;99.90;;;;;;5057630;28;20183;-79
2022/09/11 01:06:36;;;;;;;14.50;7.90;;;15.00;99.90;;;;;;5057764;28;20187;-79
2022/09/11 01:09:03;;;;;;;16.80;9.10;;;15.00;99.90;;;;;;5044247;28;20625;-79
2022/09/11 01:11:52;;;;;;;11.20;8.67;;;15.00;99.90;;;;;;5056692;28;20183;-79
2022/09/11 01:14:27;;;;;;;13.33;8.27;;;15.00;99.90;;;;;;5060069;28;20172;-79
2022/09/11 01:17:20;;;;;;;10.23;7.40;;;15.00;99.90;;;;;;5049112;28;20187;-79
2022/09/11 01:19:58;;;;;;;9.90;7.53;;;14.90;99.90;;;;;;5048438;28;20210;-78
2022/09/11 01:22:50;;;;;;;11.17;6.97;;;14.90;99.90;;;;;;5055365;28;20187;-78
2022/09/11 01:25:34;;;;;;;10.93;7.70;;;14.80;99.90;;;;;;5035267;28;20238;-78
2022/09/11 01:28:04;;;;;;;13.87;8.50;;;14.80;99.90;;;;;;5048601;28;20207;-78
2022/09/11 01:30:41;;;;;;;10.53;7.67;;;15.00;99.90;;;;;;5042095;28;20274;-78
2022/09/11 01:33:22;;;;;;;11.30;8.13;;;14.80;99.90;;;;;;5051831;28;20264;-77
2022/09/11 01:36:16;;;;;;;14.57;8.47;;;14.80;99.90;;;;;;5052067;28;20254;-77
2022/09/11 01:38:56;;;;;;;11.20;8.47;;;14.80;99.90;;;;;;5055535;28;20210;-77
2022/09/11 01:41:27;;;;;;;14.23;8.27;;;14.80;99.90;;;;;;5041671;28;20238;-78
2022/09/11 01:44:02;;;;;;;11.07;8.17;;;14.80;99.90;;;;;;5053553;28;20592;-78
2022/09/11 01:46:29;;;;;;;17.00;9.07;;;14.90;99.90;;;;;;5041086;28;20184;-78
2022/09/11 01:49:07;;;;;;;12.20;8.13;;;14.90;99.90;;;;;;5053895;28;20207;-78
2022/09/11 01:51:35;;;;;;;14.03;8.40;;;14.90;99.90;;;;;;5036949;28;20180;-78
2022/09/11 01:54:02;;;;;;;11.90;8.53;;;14.90;99.90;;;;;;5035959;28;20653;-78
2022/09/11 01:56:36;;;;;;;10.83;8.77;;;14.90;99.90;;;;;;5049991;28;20270;-78
2022/09/11 01:59:07;;;;;;;14.00;8.77;;;14.90;99.90;;;;;;5055558;28;20200;-78
2022/09/11 02:01:36;;;;;;;16.17;9.87;;;14.90;99.90;;;;;;5053841;28;20187;-78
2022/09/11 02:04:14;;;;;;;13.63;9.63;;;14.90;99.90;;;;;;5053062;28;20309;-78
2022/09/11 02:06:46;;;;;;;12.87;9.17;;;14.90;99.90;;;;;;5053680;28;20556;-78
2022/09/11 02:09:15;;;;;;;14.07;9.60;;;15.00;99.90;;;;;;5055766;28;20653;-78
2022/09/11 02:11:42;;;;;;;12.70;9.57;;;15.00;99.90;;;;;;5061079;28;20246;-78
2022/09/11 02:14:22;;;;;;;16.17;9.47;;;15.00;99.90;;;;;;5054760;28;20558;-78
2022/09/11 02:16:49;;;;;;;17.47;9.10;;;15.00;99.90;;;;;;5055434;28;20186;-77
2022/09/11 02:19:22;;;;;;;15.73;8.40;;;15.00;99.90;;;;;;5050042;28;20195;-78
2022/09/11 02:21:49;;;;;;;14.23;7.83;;;15.00;99.90;;;;;;5041901;28;20212;-78
2022/09/11 02:24:15;;;;;;;10.67;7.77;;;14.90;99.90;;;;;;5034992;28;20164;-78
2022/09/11 02:26:48;;;;;;;13.37;7.60;;;15.00;99.90;;;;;;5041183;28;20237;-78
2022/09/11 02:29:14;;;;;;;15.43;8.30;;;14.90;99.90;;;;;;5052569;28;20212;-77
2022/09/11 02:31:41;;;;;;;16.13;7.50;;;14.90;99.90;;;;;;5050694;28;20183;-78
2022/09/11 02:34:08;;;;;;;11.07;8.17;;;14.90;99.90;;;;;;5052063;28;20677;-78
2022/09/11 02:36:53;;;;;;;14.97;8.10;;;14.90;99.90;;;;;;5051943;28;20676;-78
2022/09/11 02:39:54;;;;;;;13.40;8.37;;;14.90;99.90;;;;;;5054426;28;20646;-78
2022/09/11 02:42:38;;;;;;;12.50;8.90;;;14.90;99.90;;;;;;5035866;28;20790;-78
2022/09/11 02:45:27;;;;;;;15.00;9.27;;;14.90;99.90;;;;;;5055436;28;20194;-78
2022/09/11 02:47:59;;;;;;;12.87;9.33;;;14.90;99.90;;;;;;5061228;28;20183;-78
2022/09/11 02:50:34;;;;;;;14.90;9.40;;;14.90;99.90;;;;;;5055382;28;20574;-78
2022/09/11 02:53:04;;;;;;;15.03;9.13;;;14.90;99.90;;;;;;5053502;28;20190;-78
2022/09/11 02:55:52;;;;;;;16.87;9.80;;;14.90;99.90;;;;;;5050994;28;20353;-78
2022/09/11 02:58:37;;;;;;;14.90;11.17;;;14.90;99.90;;;;;;5050584;28;20258;-78
2022/09/11 03:01:03;;;;;;;17.43;11.53;;;14.90;99.90;;;;;;5051123;28;20183;-78
2022/09/11 03:03:45;;;;;;;17.13;12.10;;;14.90;99.90;;;;;;5053232;28;20263;-78
2022/09/11 03:06:23;;;;;;;15.73;12.00;;;14.90;99.90;;;;;;5050866;28;20332;-78
2022/09/11 03:08:49;;;;;;;14.43;10.30;;;15.00;99.90;;;;;;5047308;28;20207;-78
2022/09/11 03:11:16;;;;;;;22.07;14.50;;;15.00;99.90;;;;;;5039449;28;20674;-78
2022/09/11 03:13:42;;;;;;;20.97;12.53;;;15.00;99.90;;;;;;5045306;28;21487;-78
2022/09/11 03:16:08;;;;;;;23.03;13.40;;;15.00;99.90;;;;;;5055107;28;20210;-78
2022/09/11 03:18:34;;;;;;;23.20;12.47;;;15.00;99.90;;;;;;5053945;28;20581;-78
2022/09/11 03:21:00;;;;;;;18.57;11.37;;;15.10;99.90;;;;;;5054034;28;20664;-78
2022/09/11 03:23:26;;;;;;;15.50;10.67;;;15.10;99.90;;;;;;5053591;28;20641;-78
2022/09/11 03:25:53;;;;;;;18.33;11.27;;;15.10;99.90;;;;;;5058413;28;20183;-77
2022/09/11 03:28:19;;;;;;;15.00;11.13;;;15.10;99.90;;;;;;5059128;28;20183;-78
2022/09/11 03:30:44;;;;;;;18.30;12.03;;;15.10;99.90;;;;;;5060133;28;20183;-77
2022/09/11 03:33:10;;;;;;;18.53;12.63;;;15.10;99.90;;;;;;5055030;28;20580;-77
2022/09/11 03:35:37;;;;;;;22.20;13.30;;;15.10;99.90;;;;;;5052927;28;20745;-77
2022/09/11 03:38:02;;;;;;;21.03;12.73;;;15.10;99.90;;;;;;5049559;28;20178;-78
2022/09/11 03:40:28;;;;;;;19.90;14.17;;;15.20;99.90;;;;;;5052273;28;20565;-78
2022/09/11 03:42:54;;;;;;;20.53;13.17;;;15.20;99.90;;;;;;5052673;28;20629;-78
2022/09/11 03:45:20;;;;;;;14.80;12.17;;;15.20;99.90;;;;;;5052913;28;20183;-78
2022/09/11 03:47:45;;;;;;;23.13;14.97;;;15.20;99.90;;;;;;5041022;28;20558;-78
2022/09/11 03:50:11;;;;;;;41.17;21.27;;;15.20;99.90;;;;;;5050006;28;20206;-77
2022/09/11 03:52:37;;;;;;;69.87;33.73;;;15.20;99.90;;;;;;5053814;28;20187;-78
2022/09/11 03:55:04;;;;;;;65.77;30.23;;;15.30;99.90;;;;;;5053780;28;20280;-78
2022/09/11 03:57:34;;;;;;;80.77;34.80;;;15.30;99.90;;;;;;5052065;28;20548;-78
2022/09/11 04:00:01;;;;;;;72.97;35.40;;;15.40;99.90;;;;;;5052175;28;20199;-78
2022/09/11 04:02:26;;;;;;;79.03;37.03;;;15.40;99.90;;;;;;5053379;28;20255;-77
2022/09/11 04:04:52;;;;;;;95.83;39.20;;;15.40;99.90;;;;;;5052886;28;20207;-77
2022/09/11 04:07:18;;;;;;;104.33;43.20;;;15.40;99.90;;;;;;5052759;28;20183;-77
2022/09/11 04:09:45;;;;;;;113.53;45.40;;;15.40;99.90;;;;;;5053370;28;20218;-78
2022/09/11 04:12:11;;;;;;;100.27;42.00;;;15.50;99.90;;;;;;5057583;28;20237;-77
2022/09/11 04:14:37;;;;;;;99.33;42.97;;;15.50;99.90;;;;;;5056917;28;20285;-78
2022/09/11 04:17:03;;;;;;;97.03;40.13;;;15.50;99.90;;;;;;5055410;28;20727;-78
2022/09/11 04:19:28;;;;;;;97.63;40.73;;;15.50;99.90;;;;;;5054430;28;20333;-78
2022/09/11 04:21:54;;;;;;;92.57;38.87;;;15.50;99.90;;;;;;5056490;28;20534;-78
2022/09/11 04:24:19;;;;;;;97.10;39.87;;;15.50;99.90;;;;;;5062670;28;20673;-78
2022/09/11 04:26:45;;;;;;;95.60;40.43;;;15.50;99.90;;;;;;5066419;28;20172;-78
2022/09/11 04:29:11;;;;;;;104.57;39.93;;;15.50;99.90;;;;;;5066943;28;20197;-79
2022/09/11 04:31:37;;;;;;;109.53;41.07;;;15.50;99.90;;;;;;5065665;28;20583;-78
2022/09/11 04:34:03;;;;;;;103.40;40.77;;;15.50;99.90;;;;;;5061091;28;20187;-78
2022/09/11 04:36:29;;;;;;;112.97;41.90;;;15.50;99.90;;;;;;5066914;28;20579;-78
2022/09/11 04:38:57;;;;;;;108.17;40.00;;;15.50;99.90;;;;;;5063123;28;20222;-78
2022/09/11 04:41:23;;;;;;;123.03;42.87;;;15.50;99.90;;;;;;5067796;28;20171;-78
2022/09/11 04:43:57;;;;;;;106.00;41.83;;;15.50;99.90;;;;;;5062766;28;20570;-78
2022/09/11 04:46:23;;;;;;;93.00;38.87;;;15.50;99.90;;;;;;5065274;28;20183;-78
2022/09/11 04:48:51;;;;;;;116.93;42.60;;;15.50;99.90;;;;;;5067908;28;20199;-78
2022/09/11 04:51:27;;;;;;;118.37;41.77;;;15.50;99.90;;;;;;5066626;28;20214;-78
2022/09/11 04:53:56;;;;;;;114.00;41.80;;;15.50;99.90;;;;;;5070333;28;20268;-78
2022/09/11 04:56:31;;;;;;;120.53;42.40;;;15.50;99.90;;;;;;5067921;28;20217;-77
2022/09/11 04:59:04;;;;;;;125.23;43.60;;;15.50;99.90;;;;;;5066202;28;20195;-78
2022/09/11 05:01:31;;;;;;;126.23;43.40;;;15.50;99.90;;;;;;5065471;28;20688;-78
2022/09/11 05:03:56;;;;;;;114.67;43.80;;;15.50;99.90;;;;;;5064512;28;20543;-78
2022/09/11 05:06:22;;;;;;;114.27;43.33;;;15.40;99.90;;;;;;5063985;28;20182;-78
2022/09/11 05:08:49;;;;;;;133.03;46.20;;;15.50;99.90;;;;;;5064675;28;20226;-77
2022/09/11 05:11:16;;;;;;;126.40;43.90;;;15.50;99.90;;;;;;5066098;28;20179;-78
2022/09/11 05:13:42;;;;;;;117.40;43.07;;;15.50;99.90;;;;;;5062427;28;20607;-77
2022/09/11 05:16:11;;;;;;;110.50;41.30;;;15.50;99.90;;;;;;5066015;28;20200;-78
2022/09/11 05:18:38;;;;;;;119.83;43.43;;;15.50;99.90;;;;;;5059549;28;20225;-77
2022/09/11 05:21:12;;;;;;;118.43;42.40;;;15.50;99.90;;;;;;5065514;28;20179;-78
2022/09/11 05:23:38;;;;;;;113.93;41.17;;;15.50;99.90;;;;;;5067833;28;20232;-77
2022/09/11 05:26:05;;;;;;;110.47;41.90;;;15.50;99.90;;;;;;5068079;28;20205;-78
2022/09/11 05:28:32;;;;;;;115.90;42.60;;;15.50;99.90;;;;;;5064144;28;20221;-77
2022/09/11 05:30:58;;;;;;;104.73;40.80;;;15.50;99.90;;;;;;5065352;28;20183;-78
2022/09/11 05:33:25;;;;;;;118.23;42.13;;;15.40;99.90;;;;;;5065804;28;20383;-77
2022/09/11 05:35:52;;;;;;;107.70;40.90;;;15.40;99.90;;;;;;5063452;28;20195;-78
2022/09/11 05:38:18;;;;;;;104.03;40.70;;;15.50;99.90;;;;;;5064627;28;20171;-77
2022/09/11 05:40:49;;;;;;;109.17;42.57;;;15.50;99.90;;;;;;5063711;28;20603;-77
2022/09/11 05:43:16;;;;;;;115.70;43.40;;;15.40;99.90;;;;;;5062004;28;20202;-78
2022/09/11 05:45:43;;;;;;;115.30;41.90;;;15.40;99.90;;;;;;5065214;28;20300;-77
2022/09/11 05:48:09;;;;;;;113.47;42.80;;;15.40;99.90;;;;;;5066377;28;20180;-78
2022/09/11 05:50:35;;;;;;;108.47;42.93;;;15.40;99.90;;;;;;5066138;28;20182;-78
2022/09/11 05:53:01;;;;;;;111.47;42.13;;;15.40;99.90;;;;;;5066062;28;20186;-78
2022/09/11 05:55:26;;;;;;;102.10;41.00;;;15.40;99.90;;;;;;5063912;28;20207;-77
2022/09/11 05:57:52;;;;;;;105.90;41.37;;;15.40;99.90;;;;;;5066690;28;20186;-78
2022/09/11 06:00:19;;;;;;;109.13;43.10;;;15.40;99.90;;;;;;5066607;28;20269;-77
2022/09/11 06:02:45;;;;;;;122.43;43.17;;;15.40;99.90;;;;;;5063000;28;20167;-77
2022/09/11 06:05:10;;;;;;;100.50;41.20;;;15.50;99.90;;;;;;5062565;28;20189;-77
2022/09/11 06:07:36;;;;;;;109.40;41.73;;;15.50;99.90;;;;;;5058929;28;20551;-77
2022/09/11 06:10:02;;;;;;;105.87;42.60;;;15.40;99.90;;;;;;5062990;28;20202;-77
2022/09/11 06:12:28;;;;;;;117.37;42.07;;;15.40;99.90;;;;;;5060539;28;20224;-78
2022/09/11 06:14:53;;;;;;;130.77;45.53;;;15.40;99.90;;;;;;5061732;28;20199;-77
2022/09/11 06:17:20;;;;;;;122.77;44.63;;;15.40;99.90;;;;;;5062875;28;20213;-77
2022/09/11 06:19:46;;;;;;;126.67;44.40;;;15.40;99.90;;;;;;5064836;28;20576;-77
2022/09/11 06:22:11;;;;;;;127.90;44.97;;;15.50;99.90;;;;;;5058507;28;20175;-77
2022/09/11 06:24:37;;;;;;;118.47;44.50;;;15.40;99.90;;;;;;5059478;28;20184;-77
2022/09/11 06:27:03;;;;;;;129.07;43.90;;;15.40;99.90;;;;;;5062818;28;20652;-77
2022/09/11 06:29:31;;;;;;;110.57;42.03;;;15.40;99.90;;;;;;5063335;28;20243;-77
2022/09/11 06:31:58;;;;;;;114.43;39.97;;;15.50;99.90;;;;;;5064852;28;20258;-77
2022/09/11 06:34:24;;;;;;;111.27;42.97;;;15.40;99.90;;;;;;5052613;28;20340;-79
2022/09/11 06:36:50;;;;;;;113.47;45.00;;;15.40;99.90;;;;;;5057471;28;20633;-78
2022/09/11 06:39:15;;;;;;;118.50;44.37;;;15.50;99.90;;;;;;5076884;22;20257;-78
2022/09/11 06:41:42;;;;;;;129.57;42.83;;;15.50;99.90;;;;;;5076518;28;20178;-77
2022/09/11 06:44:08;;;;;;;122.97;45.10;;;15.50;99.90;;;;;;5100807;28;20289;-78
2022/09/11 06:46:34;;;;;;;130.57;46.33;;;15.50;99.90;;;;;;5096583;28;20178;-77
2022/09/11 06:49:01;;;;;;;123.90;45.67;;;15.60;99.90;;;;;;5080175;28;20270;-77
2022/09/11 06:51:27;;;;;;;129.17;47.67;;;15.60;99.90;;;;;;5081559;28;20272;-79
2022/09/11 06:53:56;;;;;;;137.43;48.33;;;15.60;99.90;;;;;;5055861;28;20171;-77
2022/09/11 06:56:22;;;;;;;139.87;46.33;;;15.60;99.90;;;;;;5053681;28;20210;-78
2022/09/11 06:58:49;;;;;;;148.50;49.17;;;15.60;99.90;;;;;;5055841;28;20178;-80
2022/09/11 07:01:19;;;;;;;132.43;46.90;;;15.60;99.90;;;;;;5089239;28;20257;-77
2022/09/11 07:03:46;;;;;;;135.67;48.33;;;15.60;99.90;;;;;;5089199;28;20166;-78
2022/09/11 07:06:17;;;;;;;138.53;46.90;;;15.60;99.90;;;;;;5055821;28;20175;-78
2022/09/11 07:08:43;;;;;;;136.47;47.40;;;15.70;99.90;;;;;;5073247;28;20167;-78
2022/09/11 07:11:12;;;;;;;144.33;49.63;;;15.70;99.90;;;;;;5072683;28;20175;-78
2022/09/11 07:13:39;;;;;;;135.43;47.20;;;15.70;99.90;;;;;;5036017;28;20185;-78
2022/09/11 07:16:08;;;;;;;135.37;47.37;;;15.80;99.90;;;;;;5052098;28;20610;-78
2022/09/11 07:18:35;;;;;;;132.63;47.20;;;15.80;99.90;;;;;;5088962;28;20200;-78
2022/09/11 07:21:04;;;;;;;137.23;50.17;;;15.80;99.90;;;;;;5089139;28;20175;-78
2022/09/11 07:23:30;;;;;;;142.13;52.07;;;15.70;99.90;;;;;;5073303;28;20645;-78
2022/09/11 07:25:55;;;;;;;126.70;48.20;;;15.70;99.90;;;;;;5073717;28;20181;-77
2022/09/11 07:28:21;;;;;;;126.47;48.00;;;15.70;99.90;;;;;;5072706;28;20183;-79
2022/09/11 07:30:47;;;;;;;123.67;47.60;;;15.70;99.90;;;;;;5053653;28;20199;-77
2022/09/11 07:33:13;;;;;;;131.77;48.83;;;15.70;99.90;;;;;;5035963;28;20202;-78
2022/09/11 07:35:38;;;;;;;124.53;48.37;;;15.70;99.90;;;;;;5035285;28;20623;-78
2022/09/11 07:38:04;;;;;;;133.30;47.23;;;15.70;99.90;;;;;;5053410;28;20545;-78
2022/09/11 07:40:30;;;;;;;142.60;48.07;;;15.70;99.90;;;;;;5052976;28;20289;-78
2022/09/11 07:42:55;;;;;;;136.57;50.17;;;15.80;99.90;;;;;;5053235;28;20236;-78
2022/09/11 07:45:21;;;;;;;127.53;49.10;;;15.80;99.90;;;;;;5053259;28;20211;-78
2022/09/11 07:47:47;;;;;;;135.07;51.30;;;15.80;99.90;;;;;;5052238;28;20255;-78
2022/09/11 07:50:12;;;;;;;131.27;49.73;;;15.90;99.90;;;;;;5036204;28;20283;-78
2022/09/11 07:52:38;;;;;;;132.00;50.80;;;15.90;99.90;;;;;;5078171;28;20198;-77
2022/09/11 07:55:04;;;;;;;122.40;49.90;;;15.90;99.90;;;;;;5081130;28;20206;-77
2022/09/11 07:57:31;;;;;;;128.47;50.03;;;15.90;99.90;;;;;;5080153;28;20189;-77
2022/09/11 07:59:56;;;;;;;117.20;47.80;;;16.00;99.90;;;;;;5080899;28;20197;-78
2022/09/11 08:02:22;;;;;;;131.43;48.30;;;16.00;99.90;;;;;;5096718;28;20170;-78
2022/09/11 08:04:48;;;;;;;160.70;53.33;;;16.00;99.90;;;;;;5056556;28;20179;-78
2022/09/11 08:07:13;;;;;;;145.37;51.80;;;16.00;99.90;;;;;;5056234;28;20175;-79
2022/09/11 08:09:39;;;;;;;138.67;53.33;;;15.80;99.90;;;;;;5056016;28;20563;-79
2022/09/11 08:12:05;;;;;;;161.40;56.43;;;15.90;99.90;;;;;;5034936;28;20187;-77
2022/09/11 08:14:31;;;;;;;157.37;53.83;;;15.90;99.90;;;;;;5034916;28;20175;-78
2022/09/11 08:16:56;;;;;;;154.57;53.87;;;16.00;99.90;;;;;;5034929;28;20172;-79
2022/09/11 08:19:22;;;;;;;139.27;54.43;;;16.00;99.90;;;;;;5054552;28;20187;-78
2022/09/11 08:21:49;;;;;;;147.00;53.63;;;16.00;99.90;;;;;;5073214;28;20197;-78
2022/09/11 08:24:16;;;;;;;135.00;49.83;;;16.00;99.90;;;;;;5072614;28;20171;-78
2022/09/11 08:26:42;;;;;;;147.30;53.63;;;16.10;99.90;;;;;;5072774;28;20637;-78
2022/09/11 08:29:08;;;;;;;144.23;51.70;;;16.10;99.90;;;;;;5072944;28;20187;-78
2022/09/11 08:31:34;;;;;;;120.03;50.00;;;16.10;99.90;;;;;;5072526;28;20171;-77
2022/09/11 08:33:59;;;;;;;131.53;50.50;;;16.20;99.90;;;;;;5074266;28;20592;-78
2022/09/11 08:36:26;;;;;;;132.83;53.27;;;16.20;99.90;;;;;;5055154;28;20209;-79
2022/09/11 08:38:52;;;;;;;116.47;49.77;;;16.30;99.90;;;;;;5076005;28;20254;-77
2022/09/11 08:41:33;;;;;;;123.20;50.17;;;16.30;99.90;;;;;;5078411;28;20168;-77
2022/09/11 08:44:11;;;;;;;132.53;50.03;;;16.30;99.90;;;;;;5075536;28;20164;-77
2022/09/11 08:46:43;;;;;;;107.17;43.67;;;16.20;99.90;;;;;;5057895;28;20197;-78
2022/09/11 08:49:23;;;;;;;114.20;48.20;;;16.30;99.90;;;;;;5055037;28;20672;-78
2022/09/11 08:51:51;;;;;;;102.63;45.43;;;16.20;99.90;;;;;;5073541;28;20182;-78
2022/09/11 08:54:37;;;;;;;109.23;46.07;;;16.20;99.90;;;;;;5072600;28;20207;-78
2022/09/11 08:57:45;;;;;;;106.03;45.10;;;16.30;99.90;;;;;;5076352;28;20151;-78
2022/09/11 09:00:23;;;;;;;100.73;44.80;;;16.30;99.90;;;;;;5058663;28;20187;-78
2022/09/11 09:03:17;;;;;;;98.13;44.37;;;16.30;99.90;;;;;;5058904;28;20162;-78
2022/09/11 09:06:16;;;;;;;104.33;43.77;;;16.40;99.90;;;;;;5059008;28;20167;-78
2022/09/11 09:09:21;;;;;;;91.53;42.17;;;16.40;99.90;;;;;;5059630;28;20228;-78
2022/09/11 09:11:50;;;;;;;88.30;39.20;;;16.50;99.90;;;;;;5054338;28;20186;-79
2022/09/11 09:14:19;;;;;;;88.37;42.00;;;16.60;99.90;;;;;;5061013;28;20645;-78
2022/09/11 09:16:57;;;;;;;89.70;43.37;;;16.70;99.90;;;;;;5071354;28;20211;-78
2022/09/11 09:19:35;;;;;;;83.03;42.13;;;16.70;99.90;;;;;;5075795;28;20688;-78
2022/09/11 09:22:11;;;;;;;89.40;44.17;;;16.60;99.90;;;;;;5071103;28;20178;-77
2022/09/11 09:24:45;;;;;;;102.77;46.03;;;16.70;99.90;;;;;;5050158;28;20163;-78
2022/09/11 09:27:20;;;;;;;102.33;46.53;;;16.70;99.90;;;;;;5076739;28;20163;-77
2022/09/11 09:29:51;;;;;;;99.43;50.60;;;16.60;99.90;;;;;;5079193;28;20190;-78
2022/09/11 09:32:31;;;;;;;85.33;46.17;;;16.50;99.90;;;;;;5062175;28;20220;-78
2022/09/11 09:35:03;;;;;;;96.03;45.97;;;16.50;99.90;;;;;;5058710;28;20191;-77
2022/09/11 09:37:29;;;;;;;94.13;46.20;;;16.60;99.90;;;;;;5059477;28;20637;-78
2022/09/11 09:39:54;;;;;;;99.30;47.00;;;16.70;99.90;;;;;;5076255;28;20218;-77
2022/09/11 09:42:49;;;;;;;96.47;47.60;;;16.80;99.90;;;;;;5058836;28;20593;-77
2022/09/11 09:45:25;;;;;;;98.07;45.87;;;16.90;99.90;;;;;;5077620;28;20199;-78
2022/09/11 09:47:52;;;;;;;96.20;46.13;;;17.00;99.90;;;;;;5069489;28;20270;-79
2022/09/11 09:50:24;;;;;;;99.20;48.20;;;17.10;99.90;;;;;;5089105;28;20273;-80
2022/09/11 09:52:53;;;;;;;91.10;44.57;;;17.00;99.90;;;;;;5069535;28;20175;-80
2022/09/11 09:55:19;;;;;;;89.77;44.30;;;16.90;99.90;;;;;;5087848;28;20195;-80
2022/09/11 09:57:46;;;;;;;86.63;44.03;;;17.00;99.90;;;;;;5088581;28;20242;-80
2022/09/11 10:00:18;;;;;;;91.33;44.97;;;17.10;99.90;;;;;;5070251;28;20202;-80
2022/09/11 10:02:52;;;;;;;85.17;44.53;;;17.20;99.90;;;;;;5087209;28;20181;-81
2022/09/11 10:05:39;;;;;;;85.27;44.10;;;17.40;99.90;;;;;;5087858;28;20151;-80
2022/09/11 10:08:20;;;;;;;88.30;42.33;;;17.50;99.90;;;;;;5086973;28;20216;-81
2022/09/11 10:10:55;;;;;;;82.00;43.30;;;17.60;99.90;;;;;;5087373;28;20242;-80
2022/09/11 10:13:24;;;;;;;79.87;40.33;;;17.60;99.90;;;;;;5103061;28;20182;-80
2022/09/11 10:15:52;;;;;;;74.83;39.87;;;17.60;99.90;;;;;;5103125;28;20202;-81
2022/09/11 10:18:41;;;;;;;70.50;38.77;;;17.60;99.90;;;;;;5103288;28;20175;-79
2022/09/11 10:21:34;;;;;;;58.10;33.20;;;17.60;99.90;;;;;;5048220;28;20156;-78
2022/09/11 10:24:02;;;;;;;54.00;32.40;;;17.60;99.90;;;;;;5065865;28;20152;-76
2022/09/11 10:26:31;;;;;;;54.73;32.20;;;17.70;99.90;;;;;;5065733;28;20168;-77
2022/09/11 10:29:11;;;;;;;52.20;32.00;;;17.70;99.90;;;;;;5065703;28;20568;-78
2022/09/11 10:31:47;;;;;;;58.20;33.80;;;17.70;99.90;;;;;;5065855;28;20167;-78
2022/09/11 10:34:15;;;;;;;54.30;31.97;;;17.80;99.90;;;;;;5076027;28;20218;-78
2022/09/11 10:37:01;;;;;;;58.93;33.27;;;18.10;99.90;;;;;;5084167;28;20210;-78
2022/09/11 10:39:31;;;;;;;63.40;34.97;;;17.70;99.90;;;;;;5080019;28;20215;-78
2022/09/11 10:42:08;;;;;;;68.27;39.97;;;17.70;99.90;;;;;;5066035;28;20629;-78
2022/09/11 10:44:35;;;;;;;66.20;39.17;;;17.50;99.90;;;;;;5082739;28;20167;-78
2022/09/11 10:47:23;;;;;;;62.53;38.07;;;17.90;99.90;;;;;;5083062;28;20170;-78
2022/09/11 10:50:09;;;;;;;61.17;38.33;;;17.90;99.90;;;;;;5082801;28;20191;-79
2022/09/11 10:52:48;;;;;;;63.00;38.17;;;17.90;99.90;;;;;;5063637;28;20187;-78
2022/09/11 10:55:16;;;;;;;63.37;38.73;;;18.00;99.90;;;;;;5082380;28;20296;-78
2022/09/11 10:57:50;;;;;;;61.60;36.30;;;18.10;99.90;;;;;;5082162;28;20163;-78
2022/09/11 11:00:22;;;;;;;39.93;25.70;;;18.10;99.90;;;;;;5080473;28;20625;-78
2022/09/11 11:03:04;;;;;;;40.10;24.60;;;18.00;99.90;;;;;;5064774;28;20167;-78
2022/09/11 11:05:51;;;;;;;43.53;29.17;;;17.90;99.90;;;;;;5082652;28;20217;-78
2022/09/11 11:08:21;;;;;;;33.97;22.20;;;18.00;99.90;;;;;;5081445;28;20170;-78
2022/09/11 11:11:22;;;;;;;32.60;22.07;;;18.40;99.90;;;;;;5079672;28;20202;-78
2022/09/11 11:14:10;;;;;;;32.63;22.20;;;17.90;99.90;;;;;;5082389;28;20170;-79
2022/09/11 11:17:03;;;;;;;37.93;24.03;;;17.80;99.90;;;;;;5081548;28;20229;-78
2022/09/11 11:19:50;;;;;;;37.23;23.70;;;17.90;99.90;;;;;;5083118;28;20194;-78
2022/09/11 11:22:59;;;;;;;36.90;23.87;;;18.00;99.90;;;;;;5082007;28;20214;-78
2022/09/11 11:25:44;;;;;;;26.07;20.40;;;18.00;99.90;;;;;;5081054;28;20170;-78
2022/09/11 11:28:45;;;;;;;27.83;19.63;;;18.00;99.90;;;;;;5080572;28;20186;-78
2022/09/11 11:31:40;;;;;;;35.73;23.60;;;18.10;99.90;;;;;;5079386;28;20185;-78
2022/09/11 11:34:24;;;;;;;46.90;32.70;;;18.20;99.90;;;;;;5081568;28;20175;-78
2022/09/11 11:36:56;;;;;;;44.77;31.13;;;18.30;99.90;;;;;;5080556;28;20246;-78
2022/09/11 11:39:35;;;;;;;40.93;29.13;;;18.30;99.90;;;;;;5079247;28;20268;-78
2022/09/11 11:42:09;;;;;;;45.37;27.87;;;18.20;99.90;;;;;;5080333;28;20155;-78
2022/09/11 11:44:53;;;;;;;39.57;28.47;;;18.30;99.90;;;;;;5062447;28;20178;-78
2022/09/11 11:47:25;;;;;;;42.50;30.47;;;18.20;99.90;;;;;;5081992;28;20276;-78
2022/09/11 11:49:50;;;;;;;40.90;30.70;;;18.60;99.90;;;;;;5064669;28;20190;-78
2022/09/11 11:52:22;;;;;;;42.17;32.07;;;18.50;99.90;;;;;;5081468;28;20200;-78
2022/09/11 11:55:21;;;;;;;37.23;28.53;;;18.70;99.90;;;;;;5081388;28;20237;-78
2022/09/11 11:57:59;;;;;;;35.93;27.30;;;18.90;99.90;;;;;;5079185;28;20175;-78
2022/09/11 12:00:28;;;;;;;37.47;28.27;;;19.00;99.90;;;;;;5079321;28;20206;-78
2022/09/11 12:03:02;;;;;;;40.40;30.20;;;19.30;99.90;;;;;;5061932;28;20189;-78
2022/09/11 12:05:31;;;;;;;38.10;27.67;;;19.30;99.90;;;;;;5080870;28;20171;-78
2022/09/11 12:07:57;;;;;;;34.03;28.60;;;19.40;99.90;;;;;;5080813;28;20185;-78
2022/09/11 12:10:32;;;;;;;36.87;28.87;;;19.30;99.90;;;;;;5080674;28;20241;-78
2022/09/11 12:13:01;;;;;;;32.20;26.27;;;19.30;99.90;;;;;;5078672;28;20645;-77
2022/09/11 12:15:30;;;;;;;40.07;29.87;;;19.90;99.90;;;;;;5077455;28;20214;-77
2022/09/11 12:18:01;;;;;;;35.50;28.07;;;19.50;99.90;;;;;;5074054;28;20175;-77
2022/09/11 12:20:38;;;;;;;31.20;24.87;;;19.50;99.90;;;;;;5079743;28;20241;-77
2022/09/11 12:23:06;;;;;;;33.13;25.97;;;19.60;99.90;;;;;;5094540;28;20170;-77
2022/09/11 12:25:34;;;;;;;41.63;32.43;;;19.60;99.90;;;;;;5081385;28;20167;-77
2022/09/11 12:28:19;;;;;;;36.40;31.30;;;19.60;99.90;;;;;;5081319;28;20243;-78
2022/09/11 12:31:01;;;;;;;22.67;17.87;;;19.40;99.90;;;;;;5081186;28;20194;-77
2022/09/11 12:33:54;;;;;;;23.50;18.37;;;19.50;99.90;;;;;;5061884;28;20595;-79
2022/09/11 12:36:35;;;;;;;19.33;17.17;;;19.50;99.90;;;;;;5075284;28;20222;-78
2022/09/11 12:41:45;;;;;;;18.77;14.33;;;19.60;99.90;;;;;;5048599;28;20204;-78
2022/09/11 12:44:28;;;;;;;16.90;12.67;;;19.60;99.90;;;;;;5050388;28;20187;-78
2022/09/11 12:46:57;;;;;;;16.83;13.13;;;19.70;99.90;;;;;;5057238;28;20183;-78
2022/09/11 12:49:24;;;;;;;14.70;10.97;;;19.90;99.90;;;;;;5070475;28;20266;-78
2022/09/11 12:51:53;;;;;;;18.00;13.30;;;20.00;99.90;;;;;;5049704;28;20206;-79